createdAt,value
2018-07-20T00:00:21.364Z,4.97
2018-07-20T00:02:49.485Z,5.10
2018-07-20T00:05:17.600Z,5.87
2018-07-20T00:07:45.742Z,5.27
2018-07-20T00:10:13.861Z,5.33
2018-07-20T00:12:41.996Z,5.53
2018-07-20T00:15:10.109Z,4.87
2018-07-20T00:17:38.231Z,5.20
2018-07-20T00:20:06.436Z,5.70
2018-07-20T00:22:34.563Z,6.00
2018-07-20T00:25:02.660Z,6.23
2018-07-20T00:27:30.768Z,5.70
2018-07-20T00:29:58.884Z,6.23
2018-07-20T00:32:27.010Z,5.93
2018-07-20T00:34:55.141Z,5.63
2018-07-20T00:37:23.269Z,5.50
2018-07-20T00:39:51.164Z,5.53
2018-07-20T00:42:19.332Z,5.80
2018-07-20T00:44:47.462Z,5.83
2018-07-20T00:47:15.589Z,6.17
2018-07-20T00:49:43.716Z,6.23
2018-07-20T00:52:11.837Z,6.20
2018-07-20T00:54:39.965Z,6.03
2018-07-20T00:57:08.316Z,6.10
2018-07-20T00:59:36.440Z,5.50
2018-07-20T01:02:04.577Z,6.10
2018-07-20T01:04:32.720Z,6.30
2018-07-20T01:07:00.842Z,5.97
2018-07-20T01:09:28.976Z,6.20
2018-07-20T01:11:57.089Z,6.77
2018-07-20T01:14:25.228Z,6.70
2018-07-20T01:16:53.329Z,5.97
2018-07-20T01:19:21.448Z,6.57
2018-07-20T01:21:49.564Z,6.60
2018-07-20T01:24:17.697Z,6.80
2018-07-20T01:26:45.808Z,6.40
2018-07-20T01:29:13.942Z,6.57
2018-07-20T01:31:42.057Z,6.37
2018-07-20T01:34:10.192Z,7.00
2018-07-20T01:36:38.309Z,7.70
2018-07-20T01:39:06.772Z,7.03
2018-07-20T01:41:34.897Z,7.03
2018-07-20T01:44:03.024Z,7.00
2018-07-20T01:46:31.145Z,7.10
2018-07-20T01:48:59.269Z,7.87
2018-07-20T01:51:27.397Z,7.10
2018-07-20T01:53:55.528Z,7.30
2018-07-20T01:56:23.644Z,7.30
2018-07-20T01:58:51.777Z,6.70
2018-07-20T02:01:19.889Z,6.37
2018-07-20T02:03:48.025Z,6.60
2018-07-20T02:06:16.157Z,7.00
2018-07-20T02:08:44.284Z,7.00
2018-07-20T02:11:12.405Z,7.43
2018-07-20T02:13:40.533Z,7.50
2018-07-20T02:16:08.664Z,6.60
2018-07-20T02:18:36.798Z,6.70
2018-07-20T02:21:04.910Z,6.30
2018-07-20T02:23:33.057Z,7.23
2018-07-20T02:26:01.165Z,8.10
2018-07-20T02:28:29.297Z,6.70
2018-07-20T02:30:57.410Z,7.70
2018-07-20T02:33:25.532Z,7.60
2018-07-20T02:35:53.657Z,7.27
2018-07-20T02:38:21.778Z,6.73
2018-07-20T02:40:49.909Z,7.20
2018-07-20T02:43:18.022Z,6.87
2018-07-20T02:45:46.144Z,7.20
2018-07-20T02:48:14.283Z,6.13
2018-07-20T02:50:42.393Z,8.20
2018-07-20T02:53:10.500Z,7.23
2018-07-20T02:55:38.633Z,7.10
2018-07-20T02:58:06.861Z,7.50
2018-07-20T03:00:34.985Z,6.60
2018-07-20T03:03:03.101Z,7.00
2018-07-20T03:05:31.229Z,7.90
2018-07-20T03:07:59.371Z,7.63
2018-07-20T03:10:27.493Z,7.93
2018-07-20T03:12:55.620Z,7.20
2018-07-20T03:15:23.733Z,8.27
2018-07-20T03:17:51.850Z,7.83
2018-07-20T03:20:19.965Z,6.90
2018-07-20T03:22:48.076Z,6.50
2018-07-20T03:25:16.201Z,7.57
2018-07-20T03:27:44.301Z,7.73
2018-07-20T03:30:12.409Z,7.20
2018-07-20T03:32:40.564Z,8.73
2018-07-20T03:35:08.653Z,7.83
2018-07-20T03:37:36.764Z,8.30
2018-07-20T03:40:06.089Z,7.50
2018-07-20T03:42:34.204Z,7.70
2018-07-20T03:45:02.342Z,7.60
2018-07-20T03:47:30.449Z,7.67
2018-07-20T03:49:58.569Z,7.07
2018-07-20T03:52:26.672Z,7.07
2018-07-20T03:54:54.792Z,7.97
2018-07-20T03:57:22.905Z,7.47
2018-07-20T03:59:51.017Z,7.70
2018-07-20T04:02:19.140Z,6.63
2018-07-20T04:04:47.256Z,6.53
2018-07-20T04:07:15.361Z,7.33
2018-07-20T04:09:43.464Z,6.70
2018-07-20T04:12:11.633Z,7.10
2018-07-20T04:14:39.537Z,6.90
2018-07-20T04:17:07.656Z,6.50
2018-07-20T04:19:35.833Z,6.67
2018-07-20T04:22:04.018Z,7.23
2018-07-20T04:24:32.136Z,6.93
2018-07-20T04:27:00.267Z,6.30
2018-07-20T04:29:28.397Z,6.73
2018-07-20T04:31:56.525Z,6.40
2018-07-20T04:34:24.653Z,6.33
2018-07-20T04:36:52.780Z,6.30
2018-07-20T04:39:20.914Z,6.50
2018-07-20T04:41:49.069Z,6.80
2018-07-20T04:44:17.196Z,6.33
2018-07-20T04:46:45.336Z,6.40
2018-07-20T04:49:13.469Z,5.80
2018-07-20T04:51:41.600Z,5.90
2018-07-20T04:54:09.725Z,5.70
2018-07-20T04:56:37.869Z,6.80
2018-07-20T04:59:05.985Z,7.10
2018-07-20T05:01:34.182Z,6.80
2018-07-20T05:04:02.342Z,6.70
2018-07-20T05:06:30.489Z,6.70
2018-07-20T05:08:58.612Z,6.70
2018-07-20T05:11:26.778Z,7.50
2018-07-20T05:13:54.881Z,6.90
2018-07-20T05:16:23.020Z,6.17
2018-07-20T05:18:51.153Z,6.50
2018-07-20T05:21:23.013Z,6.30
2018-07-20T05:23:51.141Z,5.70
2018-07-20T05:26:22.820Z,6.10
2018-07-20T05:28:50.945Z,6.07
2018-07-20T05:31:19.087Z,5.70
2018-07-20T05:33:47.226Z,5.80
2018-07-20T05:36:15.360Z,5.53
2018-07-20T05:38:43.514Z,4.80
2018-07-20T05:41:11.933Z,5.00
2018-07-20T05:43:40.062Z,5.67
2018-07-20T05:46:08.200Z,4.80
2018-07-20T05:48:36.321Z,4.53
2018-07-20T05:51:04.556Z,4.60
2018-07-20T05:53:32.677Z,5.00
2018-07-20T05:56:00.793Z,4.47
2018-07-20T05:58:28.924Z,4.43
2018-07-20T06:00:57.916Z,4.33
2018-07-20T06:03:26.038Z,5.50
2018-07-20T06:05:54.177Z,4.67
2018-07-20T06:08:22.308Z,5.30
2018-07-20T06:10:50.453Z,5.10
2018-07-20T06:13:18.581Z,5.30
2018-07-20T06:15:46.712Z,5.23
2018-07-20T06:18:14.841Z,5.37
2018-07-20T06:20:42.983Z,5.60
2018-07-20T06:23:11.112Z,5.27
2018-07-20T06:25:39.257Z,5.43
2018-07-20T06:28:07.409Z,5.60
2018-07-20T06:30:35.536Z,5.60
2018-07-20T06:33:03.672Z,6.23
2018-07-20T06:35:31.814Z,6.20
2018-07-20T06:37:59.949Z,5.80
2018-07-20T06:40:28.087Z,5.90
2018-07-20T06:42:56.208Z,5.63
2018-07-20T06:45:24.112Z,6.30
2018-07-20T06:47:52.354Z,5.50
2018-07-20T06:50:20.494Z,4.87
2018-07-20T06:52:49.033Z,5.87
2018-07-20T06:55:17.212Z,5.70
2018-07-20T06:57:45.800Z,5.37
2018-07-20T07:00:18.900Z,5.73
2018-07-20T07:02:47.050Z,5.80
2018-07-20T07:05:15.226Z,5.50
2018-07-20T07:07:43.453Z,5.10
2018-07-20T07:10:11.600Z,5.57
2018-07-20T07:12:39.809Z,5.37
2018-07-20T07:15:07.930Z,5.77
2018-07-20T07:17:36.044Z,5.50
2018-07-20T07:20:04.229Z,5.83
2018-07-20T07:22:32.358Z,5.30
2018-07-20T07:25:00.473Z,5.70
2018-07-20T07:27:28.600Z,5.27
2018-07-20T07:29:56.769Z,5.10
2018-07-20T07:32:24.910Z,5.50
2018-07-20T07:34:53.017Z,4.50
2018-07-20T07:37:21.149Z,5.50
2018-07-20T07:39:49.037Z,5.70
2018-07-20T07:42:17.243Z,5.20
2018-07-20T07:44:45.336Z,5.30
2018-07-20T07:47:13.554Z,5.10
2018-07-20T07:49:41.629Z,5.80
2018-07-20T07:52:09.750Z,5.10
2018-07-20T07:54:37.863Z,4.87
2018-07-20T07:57:06.142Z,5.17
2018-07-20T07:59:34.253Z,5.30
2018-07-20T08:02:02.366Z,5.27
2018-07-20T08:04:30.502Z,5.50
2018-07-20T08:06:58.662Z,5.10
2018-07-20T08:09:26.781Z,5.40
2018-07-20T08:11:54.917Z,5.53
2018-07-20T08:14:23.100Z,5.00
2018-07-20T08:16:51.218Z,5.03
2018-07-20T08:19:19.348Z,4.40
2018-07-20T08:21:47.477Z,5.10
2018-07-20T08:24:15.624Z,5.37
2018-07-20T08:26:43.749Z,4.47
2018-07-20T08:29:11.910Z,4.43
2018-07-20T08:31:40.029Z,4.93
2018-07-20T08:34:08.152Z,5.47
2018-07-20T08:36:36.302Z,5.57
2018-07-20T08:39:07.196Z,6.00
2018-07-20T08:41:35.427Z,5.90
2018-07-20T08:44:03.598Z,6.73
2018-07-20T08:46:31.739Z,6.50
2018-07-20T08:48:59.885Z,7.10
2018-07-20T08:51:28.053Z,6.50
2018-07-20T08:53:56.962Z,6.90
2018-07-20T08:56:25.393Z,5.67
2018-07-20T08:58:53.578Z,5.57
2018-07-20T09:01:21.680Z,7.40
2018-07-20T09:03:49.821Z,7.67
2018-07-20T09:06:17.932Z,6.10
2018-07-20T09:08:46.075Z,5.47
2018-07-20T09:11:14.240Z,6.67
2018-07-20T09:13:42.418Z,5.83
2018-07-20T09:16:11.454Z,5.80
2018-07-20T09:18:39.604Z,5.87
2018-07-20T09:21:10.576Z,6.23
2018-07-20T09:23:38.705Z,6.97
2018-07-20T09:26:06.826Z,7.87
2018-07-20T09:28:35.008Z,6.10
2018-07-20T09:31:03.144Z,6.17
2018-07-20T09:33:31.299Z,7.43
2018-07-20T09:35:59.413Z,6.60
2018-07-20T09:38:27.526Z,6.90
2018-07-20T09:40:55.670Z,6.20
2018-07-20T09:43:23.834Z,6.87
2018-07-20T09:45:51.978Z,6.67
2018-07-20T09:48:20.228Z,6.60
2018-07-20T09:50:48.342Z,6.57
2018-07-20T09:53:16.464Z,7.10
2018-07-20T09:55:45.577Z,7.67
2018-07-20T09:58:13.705Z,6.70
2018-07-20T10:00:47.189Z,7.50
2018-07-20T10:03:15.313Z,7.47
2018-07-20T10:05:43.428Z,8.00
2018-07-20T10:08:11.577Z,7.47
2018-07-20T10:10:39.690Z,7.50
2018-07-20T10:13:07.850Z,7.30
2018-07-20T10:15:36.266Z,7.77
2018-07-20T10:18:04.413Z,8.67
2018-07-20T10:20:32.566Z,8.17
2018-07-20T10:23:01.204Z,8.40
2018-07-20T10:25:29.361Z,9.37
2018-07-20T10:27:57.487Z,8.40
2018-07-20T10:30:25.617Z,10.13
2018-07-20T10:32:53.737Z,9.40
2018-07-20T10:35:21.865Z,9.27
2018-07-20T10:37:50.013Z,10.03
2018-07-20T10:40:18.140Z,9.80
2018-07-20T10:42:46.269Z,9.70
2018-07-20T10:45:14.408Z,9.30
2018-07-20T10:47:42.525Z,8.77
2018-07-20T10:50:10.714Z,9.50
2018-07-20T10:52:38.659Z,9.80
2018-07-20T10:55:06.768Z,8.77
2018-07-20T10:57:34.888Z,9.70
2018-07-20T11:00:03.037Z,9.20
2018-07-20T11:02:31.161Z,9.07
2018-07-20T11:04:59.289Z,9.10
2018-07-20T11:07:27.408Z,8.80
2018-07-20T11:09:55.601Z,10.00
2018-07-20T11:12:23.754Z,9.60
2018-07-20T11:14:51.882Z,8.60
2018-07-20T11:17:20.089Z,8.80
2018-07-20T11:19:48.271Z,9.33
2018-07-20T11:22:16.436Z,9.83
2018-07-20T11:24:44.660Z,9.50
2018-07-20T11:27:12.813Z,8.97
2018-07-20T11:29:41.014Z,10.00
2018-07-20T11:32:09.112Z,9.63
2018-07-20T11:34:37.308Z,9.60
2018-07-20T11:37:05.589Z,9.77
2018-07-20T11:39:33.709Z,9.57
2018-07-20T11:42:01.871Z,10.10
2018-07-20T11:44:30.729Z,9.30
2018-07-20T11:46:58.970Z,10.03
2018-07-20T11:49:27.206Z,9.30
2018-07-20T11:51:55.342Z,9.80
2018-07-20T11:54:23.578Z,9.43
2018-07-20T11:56:51.748Z,9.93
2018-07-20T11:59:19.996Z,9.30
2018-07-20T12:01:48.246Z,9.23
2018-07-20T12:04:16.421Z,8.73
2018-07-20T12:06:44.635Z,8.93
2018-07-20T12:09:13.221Z,8.87
2018-07-20T12:11:41.794Z,8.60
2018-07-20T12:14:10.081Z,9.13
2018-07-20T12:16:38.465Z,9.63
2018-07-20T12:19:06.609Z,9.10
2018-07-20T12:21:34.739Z,9.40
2018-07-20T12:24:03.295Z,10.03
2018-07-20T12:26:31.943Z,10.00
2018-07-20T12:29:00.187Z,9.37
2018-07-20T12:31:28.817Z,10.10
2018-07-20T12:33:56.955Z,9.90
2018-07-20T12:36:25.130Z,9.37
2018-07-20T12:38:53.575Z,9.10
2018-07-20T12:41:21.757Z,9.13
2018-07-20T12:43:49.910Z,9.90
2018-07-20T12:46:18.042Z,9.83
2018-07-20T12:48:46.177Z,9.93
2018-07-20T12:51:14.326Z,9.80
2018-07-20T12:53:42.433Z,10.33
2018-07-20T12:56:10.557Z,9.20
2018-07-20T12:58:38.496Z,9.10
2018-07-20T13:01:07.008Z,10.03
2018-07-20T13:03:35.676Z,9.40
2018-07-20T13:06:04.327Z,9.50
2018-07-20T13:08:32.959Z,8.93
2018-07-20T13:11:01.121Z,9.00
2018-07-20T13:13:29.358Z,8.37
2018-07-20T13:15:57.593Z,9.17
2018-07-20T13:18:25.817Z,9.70
2018-07-20T13:20:54.105Z,9.57
2018-07-20T13:23:22.321Z,10.30
2018-07-20T13:25:50.469Z,9.90
2018-07-20T13:28:19.172Z,10.40
2018-07-20T13:30:47.437Z,10.20
2018-07-20T13:33:15.581Z,9.50
2018-07-20T13:35:43.807Z,10.80
2018-07-20T13:38:11.726Z,10.20
2018-07-20T13:40:39.937Z,10.53
2018-07-20T13:43:08.111Z,9.60
2018-07-20T13:45:36.269Z,10.60
2018-07-20T13:48:04.469Z,9.67
2018-07-20T13:50:32.430Z,10.17
2018-07-20T13:53:00.657Z,10.00
2018-07-20T13:55:28.582Z,9.93
2018-07-20T13:57:56.870Z,10.13
2018-07-20T14:00:25.007Z,10.30
2018-07-20T14:02:53.141Z,9.80
2018-07-20T14:05:21.285Z,10.43
2018-07-20T14:07:49.445Z,11.00
2018-07-20T14:10:17.601Z,10.33
2018-07-20T14:12:45.735Z,9.93
2018-07-20T14:15:14.509Z,10.40
2018-07-20T14:17:42.677Z,9.33
2018-07-20T14:20:11.696Z,10.57
2018-07-20T14:22:39.830Z,9.87
2018-07-20T14:25:07.992Z,9.63
2018-07-20T14:27:36.187Z,9.70
2018-07-20T14:30:04.680Z,9.53
2018-07-20T14:32:32.830Z,9.57
2018-07-20T14:35:00.958Z,10.00
2018-07-20T14:37:29.967Z,9.63
2018-07-20T14:39:58.196Z,9.40
2018-07-20T14:42:26.280Z,10.23
2018-07-20T14:44:55.087Z,9.87
2018-07-20T14:47:23.321Z,9.37
2018-07-20T14:49:52.654Z,10.13
2018-07-20T14:52:20.942Z,9.83
2018-07-20T14:54:49.232Z,10.20
2018-07-20T14:57:17.381Z,9.77
2018-07-20T14:59:45.589Z,10.37
2018-07-20T15:02:13.751Z,16.37
2018-07-20T15:04:43.271Z,10.30
2018-07-20T15:07:11.390Z,10.10
2018-07-20T15:09:39.526Z,10.73
2018-07-20T15:12:07.692Z,9.40
2018-07-20T15:14:35.901Z,10.30
2018-07-20T15:17:03.857Z,9.47
2018-07-20T15:19:32.049Z,9.60
2018-07-20T15:22:00.208Z,10.00
2018-07-20T15:24:28.438Z,9.07
2018-07-20T15:26:56.654Z,9.20
2018-07-20T15:29:24.849Z,9.10
2018-07-20T15:31:53.011Z,9.30
2018-07-20T15:34:21.181Z,8.97
2018-07-20T15:36:49.396Z,9.00
2018-07-20T15:39:17.542Z,9.67
2018-07-20T15:41:45.743Z,9.00
2018-07-20T15:44:13.904Z,10.10
2018-07-20T15:46:42.198Z,8.83
2018-07-20T15:49:10.322Z,10.00
2018-07-20T15:53:35.204Z,10.13
2018-07-20T15:54:07.623Z,10.00
2018-07-20T15:56:35.738Z,8.50
2018-07-20T15:59:04.871Z,9.77
2018-07-20T16:01:33.181Z,9.23
2018-07-20T16:04:01.386Z,8.50
2018-07-20T16:06:29.577Z,9.17
2018-07-20T16:08:57.737Z,9.10
2018-07-20T16:11:25.872Z,8.60
2018-07-20T16:14:03.754Z,9.37
2018-07-20T16:16:31.961Z,9.70
2018-07-20T16:19:00.150Z,9.60
2018-07-20T16:21:28.311Z,8.63
2018-07-20T16:23:59.654Z,8.97
2018-07-20T16:26:27.789Z,9.83
2018-07-20T16:28:55.923Z,9.37
2018-07-20T16:31:24.048Z,10.00
2018-07-20T16:33:53.361Z,9.50
2018-07-20T16:36:21.485Z,9.27
2018-07-20T16:38:50.097Z,9.70
2018-07-20T16:41:18.343Z,9.37
2018-07-20T16:43:46.494Z,9.63
2018-07-20T16:46:14.805Z,9.87
2018-07-20T16:48:42.973Z,10.40
2018-07-20T16:51:11.206Z,10.30
2018-07-20T16:53:39.461Z,9.73
2018-07-20T16:56:07.629Z,10.20
2018-07-20T16:58:35.923Z,9.40
2018-07-20T17:01:04.065Z,9.23
2018-07-20T17:03:32.217Z,10.10
2018-07-20T17:06:00.325Z,9.30
2018-07-20T17:08:28.474Z,9.97
2018-07-20T17:10:56.685Z,8.83
2018-07-20T17:13:24.840Z,9.57
2018-07-20T17:15:53.107Z,10.17
2018-07-20T17:18:21.229Z,9.50
2018-07-20T17:20:49.534Z,9.60
2018-07-20T17:23:17.894Z,9.70
2018-07-20T17:25:46.017Z,9.33
2018-07-20T17:28:14.217Z,9.30
2018-07-20T17:30:42.284Z,9.17
2018-07-20T17:33:10.435Z,9.70
2018-07-20T17:35:38.604Z,8.77
2018-07-20T17:38:06.720Z,10.67
2018-07-20T17:40:34.873Z,10.13
2018-07-20T17:43:03.041Z,9.60
2018-07-20T17:45:31.173Z,10.10
2018-07-20T17:47:59.320Z,9.20
2018-07-20T17:50:28.105Z,8.67
2018-07-20T17:52:56.335Z,9.20
2018-07-20T17:55:24.492Z,9.40
2018-07-20T17:57:52.617Z,9.10
2018-07-20T18:00:20.807Z,9.33
2018-07-20T18:02:48.948Z,9.13
2018-07-20T18:05:17.109Z,8.60
2018-07-20T18:07:45.257Z,9.50
2018-07-20T18:10:13.420Z,9.57
2018-07-20T18:12:41.625Z,9.57
2018-07-20T18:15:09.828Z,9.90
2018-07-20T18:17:37.981Z,10.40
2018-07-20T18:20:06.188Z,9.10
2018-07-20T18:22:34.349Z,9.60
2018-07-20T18:25:02.517Z,9.30
2018-07-20T18:27:30.804Z,10.00
2018-07-20T18:29:58.986Z,9.73
2018-07-20T18:32:27.137Z,9.47
2018-07-20T18:34:55.353Z,9.03
2018-07-20T18:37:23.601Z,9.17
2018-07-20T18:39:51.768Z,10.03
2018-07-20T18:42:19.965Z,9.73
2018-07-20T18:44:48.140Z,9.50
2018-07-20T18:47:16.297Z,9.60
2018-07-20T18:49:44.465Z,9.50
2018-07-20T18:52:12.633Z,8.63
2018-07-20T18:54:40.790Z,9.20
2018-07-20T18:57:08.953Z,10.13
2018-07-20T18:59:37.204Z,9.33
2018-07-20T19:02:05.405Z,9.30
2018-07-20T19:04:33.606Z,8.97
2018-07-20T19:07:01.821Z,9.37
2018-07-20T19:09:29.962Z,8.93
2018-07-20T19:11:58.146Z,9.50
2018-07-20T19:14:26.301Z,9.70
2018-07-20T19:16:54.485Z,9.73
2018-07-20T19:19:22.654Z,9.20
2018-07-20T19:21:50.610Z,10.00
2018-07-20T19:24:18.773Z,9.63
2018-07-20T19:26:46.994Z,10.20
2018-07-20T19:29:15.137Z,8.90
2018-07-20T19:31:43.301Z,10.17
2018-07-20T19:34:11.544Z,9.30
2018-07-20T19:36:39.661Z,9.50
2018-07-20T19:39:09.161Z,9.60
2018-07-20T19:41:37.348Z,8.97
2018-07-20T19:44:05.545Z,9.07
2018-07-20T19:46:33.775Z,8.40
2018-07-20T19:49:02.273Z,8.80
2018-07-20T19:51:30.453Z,9.60
2018-07-20T19:53:58.376Z,9.60
2018-07-20T19:56:26.540Z,8.40
2018-07-20T19:58:54.816Z,9.73
2018-07-20T20:01:22.837Z,9.23
2018-07-20T20:03:51.165Z,9.53
2018-07-20T20:06:19.342Z,9.50
2018-07-20T20:08:47.468Z,9.37
2018-07-20T20:11:15.682Z,9.13
2018-07-20T20:13:43.925Z,9.57
2018-07-20T20:16:12.092Z,9.30
2018-07-20T20:18:40.254Z,8.63
2018-07-20T20:21:08.393Z,8.93
2018-07-20T20:23:36.533Z,8.80
2018-07-20T20:26:04.697Z,9.07
2018-07-20T20:28:32.932Z,9.70
2018-07-20T20:31:01.062Z,9.73
2018-07-20T20:33:29.165Z,9.30
2018-07-20T20:35:57.340Z,8.57
2018-07-20T20:38:25.436Z,9.83
2018-07-20T20:40:53.553Z,9.47
2018-07-20T20:43:21.649Z,9.57
2018-07-20T20:45:49.749Z,8.90
2018-07-20T20:48:17.851Z,8.60
2018-07-20T20:50:45.954Z,9.63
2018-07-20T20:53:14.093Z,10.30
2018-07-20T20:55:41.980Z,9.70
2018-07-20T20:58:10.085Z,9.30
2018-07-20T21:00:38.211Z,10.03
2018-07-20T21:03:06.330Z,9.27
2018-07-20T21:05:34.498Z,9.20
2018-07-20T21:08:02.600Z,8.60
2018-07-20T21:10:30.752Z,8.90
2018-07-20T21:12:58.844Z,9.77
2018-07-20T21:15:26.953Z,8.87
2018-07-20T21:17:55.090Z,8.53
2018-07-20T21:20:24.185Z,9.40
2018-07-20T21:22:52.293Z,9.00
2018-07-20T21:25:20.421Z,8.53
2018-07-20T21:27:48.545Z,9.10
2018-07-20T21:30:16.700Z,8.13
2018-07-20T21:32:44.845Z,8.80
2018-07-20T21:35:12.972Z,8.87
2018-07-20T21:37:41.104Z,7.77
2018-07-20T21:40:09.277Z,8.97
2018-07-20T21:42:37.377Z,8.63
2018-07-20T21:45:05.511Z,8.03
2018-07-20T21:47:33.673Z,8.60
2018-07-20T21:50:01.785Z,8.60
2018-07-20T21:52:29.916Z,8.50
2018-07-20T21:54:58.179Z,8.27
2018-07-20T21:57:26.325Z,7.93
2018-07-20T21:59:54.425Z,8.37
2018-07-20T22:02:22.552Z,7.63
2018-07-20T22:04:50.645Z,7.73
2018-07-20T22:07:18.757Z,8.50
2018-07-20T22:09:46.866Z,8.37
2018-07-20T22:12:15.006Z,8.23
2018-07-20T22:14:43.116Z,7.07
2018-07-20T22:17:11.435Z,7.50
2018-07-20T22:19:39.537Z,7.77
2018-07-20T22:22:07.687Z,7.10
2018-07-20T22:24:35.774Z,8.43
2018-07-20T22:27:03.885Z,8.03
2018-07-20T22:29:32.001Z,7.93
2018-07-20T22:32:00.110Z,8.00
2018-07-20T22:34:28.217Z,7.17
2018-07-20T22:36:56.331Z,7.80
2018-07-20T22:39:24.441Z,7.67
2018-07-20T22:41:52.544Z,7.73
2018-07-20T22:44:20.629Z,7.97
2018-07-20T22:46:48.732Z,7.20
2018-07-20T22:49:16.840Z,7.30
2018-07-20T22:51:44.970Z,8.50
2018-07-20T22:54:13.085Z,7.50
2018-07-20T22:56:41.193Z,7.80
2018-07-20T22:59:09.314Z,7.50
2018-07-20T23:01:37.434Z,7.70
2018-07-20T23:04:05.537Z,6.80
2018-07-20T23:06:33.644Z,7.13
2018-07-20T23:09:01.769Z,7.80
2018-07-20T23:11:29.881Z,6.77
2018-07-20T23:13:57.993Z,7.40
2018-07-20T23:16:26.104Z,7.47
2018-07-20T23:18:54.212Z,7.93
2018-07-20T23:21:22.340Z,8.07
2018-07-20T23:23:50.453Z,8.27
2018-07-20T23:26:18.578Z,7.90
2018-07-20T23:28:46.692Z,7.77
2018-07-20T23:31:14.796Z,7.07
2018-07-20T23:33:43.010Z,7.60
2018-07-20T23:36:11.122Z,8.00
2018-07-20T23:38:39.257Z,7.27
2018-07-20T23:41:07.421Z,7.80
2018-07-20T23:43:35.542Z,8.27
2018-07-20T23:46:03.648Z,7.90
2018-07-20T23:48:31.773Z,7.00
2018-07-20T23:50:59.873Z,7.10
2018-07-20T23:53:27.984Z,7.07
2018-07-20T23:55:56.093Z,7.43
2018-07-20T23:58:24.197Z,6.67
